Alice Springs Airport
YBAS : now visible

Airfield :











YOU CAN JOIN US ON...

 
LOGIN :

Register | Disclaimer

   EN    FR    IT 

 









Legend :    VFR   Marginal VFR   IFR   Intensive IFR   Very Intensive IFR
Visi :
Ceiling :
>= 8 km
>= 3000ft
5 to 8 km
1000 to 3000 ft
1500m to 5 km
500 to 1000 ft
800 to 1500m
200 to 500 ft
< 800m
< 200 ft
Symbols :   Thunderstorms  Fog  Heavy snow  Heavy precipitations  Wind > 20 kt






- Airport Elevation : 1789 ft
- IATA code : ASP


YBAS - Alice Springs

CURRENT METAR :
  • 150430Z AUTO 11011KT 9999 // NCD 25/07 Q1018 RF00.0/000.0

EXPIRED METARs :
  • 150400Z AUTO 14010KT 090V170 9999 // NCD 25/08 Q1018
  • 150330Z AUTO 16010KT 9999 // NCD 25/09 Q1018 RF00.0/000.0
  • 150300Z AUTO 17011KT 9999 // NCD 25/09 Q1019
  • 150230Z AUTO 12012KT 110V190 9999 // NCD 24/09 Q1019 RF00.0/000.0
  • 150200Z AUTO 11011KT 9999 // NCD 23/09 Q1020 RF00.0/000.0
  • 150130Z AUTO 13011KT 9999 // NCD 23/09 Q1020 RF00.0/000.0

TAF TAF YBAS
Valid from the 15 at 00:00 until the 16 at 00:00 UTC


142312Z 1500/1600 14012KT CAVOK
FM150900 17007KT CAVOK
YMMM FIR / Oceania



MET'MAP, your aeronautical weather chart ! - Copyright ORBIFLY December 2007 - Disclaimer

ORBIFLY MET'MAP TEAM :

Programming & Development : Alexandra Zaïnal
Concept & original design : Baudouin d'Aumeries
Assistance for programming : Marc-Olivier Méhu
Technical & hardware support : Manuel Goepfert

Contact : metmap@orbifly.com




SOURCES & CREDITS :

   NOAA       Earth
Advisory